sensor_id;sensor_type;location;lat;lon;timestamp;pressure;altitude;pressure_sealevel;temperature;humidity
27643;BME280;15053;48.618;10.024;2023-08-06T00:00:30;93631.47;;;15.78;92.34
27643;BME280;15053;48.618;10.024;2023-08-06T00:02:56;93621.97;;;15.74;92.81
27643;BME280;15053;48.618;10.024;2023-08-06T00:05:23;93630.94;;;15.73;92.79
27643;BME280;15053;48.618;10.024;2023-08-06T00:07:50;93629.41;;;15.72;92.79
27643;BME280;15053;48.618;10.024;2023-08-06T00:10:17;93623.31;;;15.68;92.84
27643;BME280;15053;48.618;10.024;2023-08-06T00:12:44;93622.53;;;15.67;93.13
27643;BME280;15053;48.618;10.024;2023-08-06T00:15:11;93621.75;;;15.67;93.32
27643;BME280;15053;48.618;10.024;2023-08-06T00:17:38;93622.44;;;15.64;93.32
27643;BME280;15053;48.618;10.024;2023-08-06T00:20:05;93620.81;;;15.59;93.80
27643;BME280;15053;48.618;10.024;2023-08-06T00:22:37;93620.38;;;15.57;93.88
27643;BME280;15053;48.618;10.024;2023-08-06T00:25:04;93617.41;;;15.59;93.79
27643;BME280;15053;48.618;10.024;2023-08-06T00:27:31;93614.69;;;15.55;94.07
27643;BME280;15053;48.618;10.024;2023-08-06T00:29:59;93606.03;;;15.55;93.98
27643;BME280;15053;48.618;10.024;2023-08-06T00:32:25;93602.31;;;15.56;94.04
27643;BME280;15053;48.618;10.024;2023-08-06T00:34:52;93604.19;;;15.55;94.05
27643;BME280;15053;48.618;10.024;2023-08-06T00:37:18;93593.94;;;15.50;94.12
27643;BME280;15053;48.618;10.024;2023-08-06T00:39:45;93593.50;;;15.48;94.47
27643;BME280;15053;48.618;10.024;2023-08-06T00:42:11;93595.69;;;15.46;94.64
27643;BME280;15053;48.618;10.024;2023-08-06T00:44:38;93590.31;;;15.43;94.63
27643;BME280;15053;48.618;10.024;2023-08-06T00:47:07;93596.66;;;15.42;94.67
27643;BME280;15053;48.618;10.024;2023-08-06T00:49:36;93590.56;;;15.38;94.74
27643;BME280;15053;48.618;10.024;2023-08-06T00:52:06;93597.31;;;15.38;95.08
27643;BME280;15053;48.618;10.024;2023-08-06T00:54:36;93592.50;;;15.41;95.38
27643;BME280;15053;48.618;10.024;2023-08-06T00:57:04;93587.94;;;15.38;95.32
27643;BME280;15053;48.618;10.024;2023-08-06T00:59:33;93589.44;;;15.38;95.81
27643;BME280;15053;48.618;10.024;2023-08-06T01:02:01;93565.50;;;15.40;95.69
27643;BME280;15053;48.618;10.024;2023-08-06T01:04:28;93578.94;;;15.51;95.54
27643;BME280;15053;48.618;10.024;2023-08-06T01:07:19;93582.41;;;15.55;95.50
27643;BME280;15053;48.618;10.024;2023-08-06T01:15:15;93578.38;;;15.57;94.71
27643;BME280;15053;48.618;10.024;2023-08-06T01:17:45;93579.47;;;15.56;94.55
27643;BME280;15053;48.618;10.024;2023-08-06T01:20:12;93584.63;;;15.53;94.29
27643;BME280;15053;48.618;10.024;2023-08-06T01:22:38;93581.56;;;15.51;94.13
27643;BME280;15053;48.618;10.024;2023-08-06T01:25:05;93562.78;;;15.49;93.84
27643;BME280;15053;48.618;10.024;2023-08-06T01:27:48;93566.25;;;15.53;94.09
27643;BME280;15053;48.618;10.024;2023-08-06T01:30:19;93554.22;;;15.52;93.79
27643;BME280;15053;48.618;10.024;2023-08-06T01:32:49;93557.06;;;15.47;93.74
27643;BME280;15053;48.618;10.024;2023-08-06T01:35:18;93556.63;;;15.45;93.36
27643;BME280;15053;48.618;10.024;2023-08-06T01:37:46;93562.97;;;15.44;93.23
27643;BME280;15053;48.618;10.024;2023-08-06T01:40:13;93554.13;;;15.36;93.21
27643;BME280;15053;48.618;10.024;2023-08-06T01:42:40;93556.09;;;15.39;93.08
27643;BME280;15053;48.618;10.024;2023-08-06T01:45:08;93554.78;;;15.33;93.06
27643;BME280;15053;48.618;10.024;2023-08-06T01:47:35;93560.81;;;15.33;93.12
27643;BME280;15053;48.618;10.024;2023-08-06T01:50:02;93571.31;;;15.33;93.18
27643;BME280;15053;48.618;10.024;2023-08-06T01:52:29;93569.78;;;15.32;92.81
27643;BME280;15053;48.618;10.024;2023-08-06T01:54:56;93571.13;;;15.26;92.98
27643;BME280;15053;48.618;10.024;2023-08-06T01:57:22;93578.88;;;15.35;92.93
27643;BME280;15053;48.618;10.024;2023-08-06T01:59:49;93575.78;;;15.33;92.89
27643;BME280;15053;48.618;10.024;2023-08-06T03:01:04;93517.63;;;15.03;92.59
27643;BME280;15053;48.618;10.024;2023-08-06T03:03:39;93519.56;;;15.06;92.13
27643;BME280;15053;48.618;10.024;2023-08-06T03:06:07;93521.13;;;15.07;92.08
27643;BME280;15053;48.618;10.024;2023-08-06T03:08:41;93514.00;;;15.08;91.51
27643;BME280;15053;48.618;10.024;2023-08-06T03:11:07;93518.91;;;15.09;91.47
27643;BME280;15053;48.618;10.024;2023-08-06T03:13:35;93512.47;;;15.07;90.88
27643;BME280;15053;48.618;10.024;2023-08-06T03:16:01;93504.38;;;15.00;90.42
27643;BME280;15053;48.618;10.024;2023-08-06T03:18:29;93505.75;;;14.94;90.55
27643;BME280;15053;48.618;10.024;2023-08-06T03:20:59;93502.13;;;14.86;90.61
27643;BME280;15053;48.618;10.024;2023-08-06T03:23:28;93507.06;;;14.88;90.86
27643;BME280;15053;48.618;10.024;2023-08-06T03:25:55;93498.66;;;14.82;91.04
27643;BME280;15053;48.618;10.024;2023-08-06T03:28:22;93494.19;;;14.83;90.75
27643;BME280;15053;48.618;10.024;2023-08-06T03:31:01;93501.28;;;14.82;91.11
27643;BME280;15053;48.618;10.024;2023-08-06T03:33:35;93496.47;;;14.84;91.12
27643;BME280;15053;48.618;10.024;2023-08-06T03:36:05;93497.78;;;14.78;91.02
27643;BME280;15053;48.618;10.024;2023-08-06T03:38:33;93500.56;;;14.69;90.96
27643;BME280;15053;48.618;10.024;2023-08-06T03:41:04;93494.31;;;14.62;91.19
27643;BME280;15053;48.618;10.024;2023-08-06T03:43:30;93490.38;;;14.56;91.28
27643;BME280;15053;48.618;10.024;2023-08-06T03:45:57;93496.75;;;14.55;91.42
27643;BME280;15053;48.618;10.024;2023-08-06T03:48:24;93488.88;;;14.55;91.68
27643;BME280;15053;48.618;10.024;2023-08-06T03:50:50;93494.13;;;14.55;92.06
27643;BME280;15053;48.618;10.024;2023-08-06T03:53:18;93503.06;;;14.54;91.81
27643;BME280;15053;48.618;10.024;2023-08-06T03:55:45;93488.75;;;14.51;91.97
27643;BME280;15053;48.618;10.024;2023-08-06T03:58:11;93489.19;;;14.53;91.89
27643;BME280;15053;48.618;10.024;2023-08-06T04:00:38;93488.44;;;14.53;91.79
27643;BME280;15053;48.618;10.024;2023-08-06T04:03:05;93483.75;;;14.46;91.89
27643;BME280;15053;48.618;10.024;2023-08-06T04:05:33;93490.84;;;14.46;92.77
27643;BME280;15053;48.618;10.024;2023-08-06T04:07:59;93481.13;;;14.46;92.74
27643;BME280;15053;48.618;10.024;2023-08-06T04:10:26;93479.50;;;14.42;92.57
27643;BME280;15053;48.618;10.024;2023-08-06T04:12:52;93481.03;;;14.43;92.71
27643;BME280;15053;48.618;10.024;2023-08-06T04:15:19;93478.63;;;14.38;93.19
27643;BME280;15053;48.618;10.024;2023-08-06T04:17:45;93482.25;;;14.33;93.79
27643;BME280;15053;48.618;10.024;2023-08-06T04:20:13;93483.75;;;14.34;94.04
27643;BME280;15053;48.618;10.024;2023-08-06T04:22:39;93479.28;;;14.35;94.00
27643;BME280;15053;48.618;10.024;2023-08-06T04:25:06;93473.28;;;14.34;94.02
27643;BME280;15053;48.618;10.024;2023-08-06T04:27:33;93473.28;;;14.34;94.09
27643;BME280;15053;48.618;10.024;2023-08-06T04:30:01;93475.56;;;14.36;94.55
27643;BME280;15053;48.618;10.024;2023-08-06T04:32:30;93480.38;;;14.34;94.48
27643;BME280;15053;48.618;10.024;2023-08-06T04:34:56;93477.78;;;14.34;94.53
27643;BME280;15053;48.618;10.024;2023-08-06T04:37:23;93472.97;;;14.36;95.05
27643;BME280;15053;48.618;10.024;2023-08-06T04:39:50;93481.47;;;14.33;94.43
27643;BME280;15053;48.618;10.024;2023-08-06T04:42:18;93474.69;;;14.32;94.61
27643;BME280;15053;48.618;10.024;2023-08-06T04:44:44;93475.78;;;14.31;94.76
27643;BME280;15053;48.618;10.024;2023-08-06T04:47:11;93477.31;;;14.32;94.50
27643;BME280;15053;48.618;10.024;2023-08-06T04:49:38;93472.38;;;14.30;94.97
27643;BME280;15053;48.618;10.024;2023-08-06T04:52:05;93464.97;;;14.20;94.69
27643;BME280;15053;48.618;10.024;2023-08-06T04:54:31;93476.66;;;14.23;95.32
27643;BME280;15053;48.618;10.024;2023-08-06T04:56:58;93476.19;;;14.20;95.46
27643;BME280;15053;48.618;10.024;2023-08-06T04:59:24;93476.31;;;14.24;95.77
27643;BME280;15053;48.618;10.024;2023-08-06T05:01:51;93475.97;;;14.26;95.96
27643;BME280;15053;48.618;10.024;2023-08-06T05:04:18;93477.31;;;14.32;95.58
27643;BME280;15053;48.618;10.024;2023-08-06T05:06:44;93476.34;;;14.36;95.76
27643;BME280;15053;48.618;10.024;2023-08-06T05:09:11;93471.00;;;14.33;95.30
27643;BME280;15053;48.618;10.024;2023-08-06T05:11:37;93470.06;;;14.29;95.41
27643;BME280;15053;48.618;10.024;2023-08-06T05:14:04;93461.13;;;14.30;95.00
27643;BME280;15053;48.618;10.024;2023-08-06T05:16:30;93463.56;;;14.35;95.13
27643;BME280;15053;48.618;10.024;2023-08-06T05:18:57;93468.66;;;14.31;94.97
27643;BME280;15053;48.618;10.024;2023-08-06T05:21:23;93477.63;;;14.30;95.10
27643;BME280;15053;48.618;10.024;2023-08-06T05:23:50;93479.03;;;14.28;94.98
27643;BME280;15053;48.618;10.024;2023-08-06T05:26:16;93472.38;;;14.30;94.73
27643;BME280;15053;48.618;10.024;2023-08-06T05:28:45;93477.19;;;14.28;94.48
27643;BME280;15053;48.618;10.024;2023-08-06T05:31:12;93472.59;;;14.25;94.74
27643;BME280;15053;48.618;10.024;2023-08-06T05:33:39;93469.22;;;14.25;94.58
27643;BME280;15053;48.618;10.024;2023-08-06T05:36:05;93457.84;;;14.20;94.66
27643;BME280;15053;48.618;10.024;2023-08-06T05:38:32;93456.00;;;14.21;94.45
27643;BME280;15053;48.618;10.024;2023-08-06T05:40:58;93461.69;;;14.23;94.12
27643;BME280;15053;48.618;10.024;2023-08-06T05:43:25;93456.56;;;14.27;94.37
27643;BME280;15053;48.618;10.024;2023-08-06T05:45:51;93460.06;;;14.31;94.10
27643;BME280;15053;48.618;10.024;2023-08-06T05:48:18;93460.78;;;14.31;93.72
27643;BME280;15053;48.618;10.024;2023-08-06T05:50:44;93461.72;;;14.35;94.04
27643;BME280;15053;48.618;10.024;2023-08-06T05:53:11;93460.94;;;14.35;93.88
27643;BME280;15053;48.618;10.024;2023-08-06T05:55:38;93466.19;;;14.35;93.90
27643;BME280;15053;48.618;10.024;2023-08-06T05:58:05;93459.84;;;14.36;93.67
27643;BME280;15053;48.618;10.024;2023-08-06T06:00:31;93453.31;;;14.42;93.76
27643;BME280;15053;48.618;10.024;2023-08-06T06:02:58;93450.34;;;14.43;94.26
27643;BME280;15053;48.618;10.024;2023-08-06T06:05:25;93451.53;;;14.46;93.93
27643;BME280;15053;48.618;10.024;2023-08-06T06:07:51;93457.00;;;14.53;93.88
27643;BME280;15053;48.618;10.024;2023-08-06T06:10:18;93461.56;;;14.56;93.42
27643;BME280;15053;48.618;10.024;2023-08-06T06:12:44;93455.13;;;14.53;93.19
27643;BME280;15053;48.618;10.024;2023-08-06T06:15:11;93463.34;;;14.52;93.26
27643;BME280;15053;48.618;10.024;2023-08-06T06:17:37;93461.25;;;14.57;93.56
27643;BME280;15053;48.618;10.024;2023-08-06T06:20:04;93470.31;;;14.60;92.93
27643;BME280;15053;48.618;10.024;2023-08-06T06:22:31;93462.88;;;14.62;93.63
27643;BME280;15053;48.618;10.024;2023-08-06T06:24:58;93465.72;;;14.69;93.14
27643;BME280;15053;48.618;10.024;2023-08-06T06:27:24;93466.13;;;14.71;92.77
27643;BME280;15053;48.618;10.024;2023-08-06T06:29:51;93469.19;;;14.73;92.95
27643;BME280;15053;48.618;10.024;2023-08-06T06:32:18;93469.19;;;14.73;92.45
27643;BME280;15053;48.618;10.024;2023-08-06T06:34:45;93472.91;;;14.72;92.23
27643;BME280;15053;48.618;10.024;2023-08-06T06:37:11;93465.78;;;14.72;92.16
27643;BME280;15053;48.618;10.024;2023-08-06T06:39:38;93475.97;;;14.74;92.32
27643;BME280;15053;48.618;10.024;2023-08-06T06:42:05;93476.16;;;14.81;92.23
27643;BME280;15053;48.618;10.024;2023-08-06T06:44:37;93469.59;;;14.87;91.85
27643;BME280;15053;48.618;10.024;2023-08-06T06:47:03;93469.34;;;14.92;91.71
27643;BME280;15053;48.618;10.024;2023-08-06T06:49:30;93460.50;;;14.97;91.29
27643;BME280;15053;48.618;10.024;2023-08-06T06:51:57;93465.50;;;15.02;90.44
27643;BME280;15053;48.618;10.024;2023-08-06T06:54:23;93462.31;;;15.08;90.22
27643;BME280;15053;48.618;10.024;2023-08-06T06:56:50;93469.75;;;15.06;88.86
27643;BME280;15053;48.618;10.024;2023-08-06T06:59:16;93470.50;;;15.07;88.62
27643;BME280;15053;48.618;10.024;2023-08-06T07:01:43;93471.06;;;15.00;88.46
27643;BME280;15053;48.618;10.024;2023-08-06T07:04:09;93466.50;;;14.97;88.69
27643;BME280;15053;48.618;10.024;2023-08-06T07:06:36;93475.03;;;14.94;88.66
27643;BME280;15053;48.618;10.024;2023-08-06T07:09:02;93469.03;;;14.94;88.29
27643;BME280;15053;48.618;10.024;2023-08-06T07:11:29;93477.97;;;14.93;87.47
27643;BME280;15053;48.618;10.024;2023-08-06T07:13:56;93475.03;;;14.94;86.46
27643;BME280;15053;48.618;10.024;2023-08-06T07:16:25;93491.66;;;14.86;86.32
27643;BME280;15053;48.618;10.024;2023-08-06T07:18:53;93481.88;;;14.71;86.72
27643;BME280;15053;48.618;10.024;2023-08-06T07:21:20;93495.19;;;14.66;87.09
27643;BME280;15053;48.618;10.024;2023-08-06T07:23:46;93484.84;;;14.57;87.66
27643;BME280;15053;48.618;10.024;2023-08-06T07:26:16;93484.72;;;14.54;88.07
27643;BME280;15053;48.618;10.024;2023-08-06T07:28:43;93482.00;;;14.50;88.18
27643;BME280;15053;48.618;10.024;2023-08-06T07:31:11;93476.84;;;14.54;88.41
27643;BME280;15053;48.618;10.024;2023-08-06T07:33:37;93487.03;;;14.55;88.21
27643;BME280;15053;48.618;10.024;2023-08-06T07:36:11;93489.53;;;14.52;87.49
27643;BME280;15053;48.618;10.024;2023-08-06T07:38:37;93494.00;;;14.51;87.83
27643;BME280;15053;48.618;10.024;2023-08-06T07:41:04;93495.84;;;14.51;87.84
27643;BME280;15053;48.618;10.024;2023-08-06T07:43:31;93494.66;;;14.48;88.12
27643;BME280;15053;48.618;10.024;2023-08-06T07:45:58;93497.28;;;14.48;88.87
27643;BME280;15053;48.618;10.024;2023-08-06T07:48:27;93500.88;;;14.56;88.54
27643;BME280;15053;48.618;10.024;2023-08-06T07:50:54;93495.63;;;14.68;88.92
27643;BME280;15053;48.618;10.024;2023-08-06T07:53:22;93492.88;;;14.89;88.75
27643;BME280;15053;48.618;10.024;2023-08-06T07:55:53;93491.72;;;15.02;88.14
27643;BME280;15053;48.618;10.024;2023-08-06T07:58:20;93487.78;;;15.08;88.09
27643;BME280;15053;48.618;10.024;2023-08-06T08:00:47;93482.97;;;15.10;87.94
27643;BME280;15053;48.618;10.024;2023-08-06T08:03:14;93489.63;;;15.07;87.51
27643;BME280;15053;48.618;10.024;2023-08-06T08:05:42;93491.81;;;15.05;87.60
27643;BME280;15053;48.618;10.024;2023-08-06T08:08:10;93487.16;;;14.99;87.42
27643;BME280;15053;48.618;10.024;2023-08-06T08:10:36;93513.47;;;15.02;85.50
27643;BME280;15053;48.618;10.024;2023-08-06T08:13:05;93499.84;;;14.97;85.22
27643;BME280;15053;48.618;10.024;2023-08-06T08:15:32;93491.75;;;14.90;85.59
27643;BME280;15053;48.618;10.024;2023-08-06T08:17:59;93505.22;;;14.88;85.59
27643;BME280;15053;48.618;10.024;2023-08-06T08:20:26;93489.72;;;14.83;85.56
27643;BME280;15053;48.618;10.024;2023-08-06T08:22:59;93472.88;;;14.84;86.56
27643;BME280;15053;48.618;10.024;2023-08-06T08:25:27;93474.34;;;14.97;87.06
27643;BME280;15053;48.618;10.024;2023-08-06T08:27:56;93493.59;;;15.01;86.20
27643;BME280;15053;48.618;10.024;2023-08-06T08:30:23;93481.13;;;14.98;85.89
27643;BME280;15053;48.618;10.024;2023-08-06T08:32:51;93486.38;;;14.98;85.77
27643;BME280;15053;48.618;10.024;2023-08-06T08:35:18;93485.06;;;15.04;86.75
27643;BME280;15053;48.618;10.024;2023-08-06T08:37:44;93491.91;;;15.09;87.74
27643;BME280;15053;48.618;10.024;2023-08-06T08:40:11;93490.72;;;15.06;87.54
27643;BME280;15053;48.618;10.024;2023-08-06T08:42:38;93506.28;;;14.99;87.33
27643;BME280;15053;48.618;10.024;2023-08-06T08:45:12;93508.69;;;14.92;87.51
27643;BME280;15053;48.618;10.024;2023-08-06T08:47:43;93492.00;;;14.85;87.80
27643;BME280;15053;48.618;10.024;2023-08-06T08:50:10;93466.47;;;14.69;88.62
27643;BME280;15053;48.618;10.024;2023-08-06T08:52:42;93498.78;;;14.86;88.74
27643;BME280;15053;48.618;10.024;2023-08-06T08:55:12;93497.66;;;14.87;88.85
27643;BME280;15053;48.618;10.024;2023-08-06T08:57:40;93512.31;;;14.88;87.58
27643;BME280;15053;48.618;10.024;2023-08-06T09:00:07;93508.59;;;14.89;86.06
27643;BME280;15053;48.618;10.024;2023-08-06T09:02:34;93504.19;;;14.93;86.55
27643;BME280;15053;48.618;10.024;2023-08-06T09:05:01;93509.44;;;15.05;86.21
27643;BME280;15053;48.618;10.024;2023-08-06T09:07:35;93504.25;;;15.08;86.43
27643;BME280;15053;48.618;10.024;2023-08-06T09:10:06;93501.97;;;15.19;86.25
27643;BME280;15053;48.618;10.024;2023-08-06T09:12:37;93503.56;;;15.23;85.71
27643;BME280;15053;48.618;10.024;2023-08-06T09:15:04;93514.69;;;15.32;85.34
27643;BME280;15053;48.618;10.024;2023-08-06T09:17:31;93520.63;;;15.29;84.47
27643;BME280;15053;48.618;10.024;2023-08-06T09:19:57;93513.81;;;15.28;84.23
27643;BME280;15053;48.618;10.024;2023-08-06T09:22:24;93522.25;;;15.22;84.27
27643;BME280;15053;48.618;10.024;2023-08-06T09:24:50;93525.66;;;15.22;83.80
27643;BME280;15053;48.618;10.024;2023-08-06T09:27:17;93506.75;;;15.17;84.17
27643;BME280;15053;48.618;10.024;2023-08-06T09:29:45;93540.00;;;15.13;84.31
27643;BME280;15053;48.618;10.024;2023-08-06T09:32:12;93518.63;;;14.99;85.32
27643;BME280;15053;48.618;10.024;2023-08-06T09:34:41;93525.94;;;14.93;86.00
27643;BME280;15053;48.618;10.024;2023-08-06T09:37:09;93533.47;;;14.95;85.67
27643;BME280;15053;48.618;10.024;2023-08-06T09:39:38;93526.72;;;14.94;85.70
27643;BME280;15053;48.618;10.024;2023-08-06T09:42:05;93531.31;;;14.97;86.59
27643;BME280;15053;48.618;10.024;2023-08-06T09:44:32;93531.31;;;14.97;87.31
27643;BME280;15053;48.618;10.024;2023-08-06T09:47:01;93540.69;;;14.98;87.48
27643;BME280;15053;48.618;10.024;2023-08-06T09:49:40;93527.50;;;14.94;88.24
27643;BME280;15053;48.618;10.024;2023-08-06T09:52:12;93532.81;;;14.98;88.75
27643;BME280;15053;48.618;10.024;2023-08-06T09:54:39;93534.00;;;15.00;88.55
27643;BME280;15053;48.618;10.024;2023-08-06T09:57:06;93537.81;;;15.03;87.71
27643;BME280;15053;48.618;10.024;2023-08-06T09:59:34;93524.53;;;14.96;87.29
27643;BME280;15053;48.618;10.024;2023-08-06T10:02:02;93526.19;;;14.88;86.70
27643;BME280;15053;48.618;10.024;2023-08-06T10:04:29;93533.16;;;14.84;86.89
27643;BME280;15053;48.618;10.024;2023-08-06T10:07:06;93532.41;;;14.84;87.29
27643;BME280;15053;48.618;10.024;2023-08-06T10:09:33;93509.59;;;14.72;87.78
27643;BME280;15053;48.618;10.024;2023-08-06T10:12:00;93527.69;;;14.89;87.64
27643;BME280;15053;48.618;10.024;2023-08-06T10:14:35;93532.50;;;14.87;88.78
27643;BME280;15053;48.618;10.024;2023-08-06T10:17:03;93527.03;;;14.92;89.08
27643;BME280;15053;48.618;10.024;2023-08-06T10:19:31;93531.63;;;14.95;88.85
27643;BME280;15053;48.618;10.024;2023-08-06T10:22:11;93517.06;;;14.98;88.92
27643;BME280;15053;48.618;10.024;2023-08-06T10:24:51;93515.88;;;15.07;89.08
27643;BME280;15053;48.618;10.024;2023-08-06T10:27:33;93517.78;;;15.22;88.52
27643;BME280;15053;48.618;10.024;2023-08-06T10:30:33;93517.13;;;15.25;86.78
27643;BME280;15053;48.618;10.024;2023-08-06T10:33:01;93507.66;;;15.36;86.98
27643;BME280;15053;48.618;10.024;2023-08-06T10:35:29;93519.13;;;15.72;86.19
27643;BME280;15053;48.618;10.024;2023-08-06T10:38:19;93514.34;;;15.89;82.36
27643;BME280;15053;48.618;10.024;2023-08-06T10:45:57;93519.19;;;16.03;80.73
27643;BME280;15053;48.618;10.024;2023-08-06T10:48:33;93537.22;;;16.05;80.43
27643;BME280;15053;48.618;10.024;2023-08-06T10:51:01;93522.06;;;15.98;79.92
27643;BME280;15053;48.618;10.024;2023-08-06T10:53:30;93520.63;;;16.01;80.94
27643;BME280;15053;48.618;10.024;2023-08-06T10:56:00;93518.81;;;16.05;81.42
27643;BME280;15053;48.618;10.024;2023-08-06T10:58:33;93502.72;;;15.75;79.44
27643;BME280;15053;48.618;10.024;2023-08-06T11:01:00;93521.97;;;15.94;80.04
27643;BME280;15053;48.618;10.024;2023-08-06T11:03:27;93515.94;;;15.94;79.53
27643;BME280;15053;48.618;10.024;2023-08-06T11:05:54;93526.28;;;15.87;79.41
27643;BME280;15053;48.618;10.024;2023-08-06T11:08:27;93519.56;;;15.74;80.15
27643;BME280;15053;48.618;10.024;2023-08-06T11:10:55;93527.75;;;15.57;81.86
27643;BME280;15053;48.618;10.024;2023-08-06T11:13:29;93529.31;;;15.33;82.80
27643;BME280;15053;48.618;10.024;2023-08-06T11:15:56;93518.69;;;15.14;84.25
27643;BME280;15053;48.618;10.024;2023-08-06T11:18:22;93517.44;;;14.96;84.80
27643;BME280;15053;48.618;10.024;2023-08-06T11:20:49;93546.06;;;14.77;87.17
27643;BME280;15053;48.618;10.024;2023-08-06T11:23:16;93526.88;;;14.61;88.91
27643;BME280;15053;48.618;10.024;2023-08-06T11:25:45;93561.69;;;14.61;90.73
27643;BME280;15053;48.618;10.024;2023-08-06T11:28:12;93490.06;;;14.45;90.27
27643;BME280;15053;48.618;10.024;2023-08-06T11:30:39;93519.75;;;14.61;90.46
27643;BME280;15053;48.618;10.024;2023-08-06T11:33:07;93517.91;;;14.74;91.05
27643;BME280;15053;48.618;10.024;2023-08-06T11:35:35;93516.53;;;15.04;91.50
27643;BME280;15053;48.618;10.024;2023-08-06T11:38:02;93527.47;;;15.34;91.62
27643;BME280;15053;48.618;10.024;2023-08-06T11:40:29;93519.53;;;15.58;89.44
27643;BME280;15053;48.618;10.024;2023-08-06T11:42:55;93515.09;;;15.90;87.41
27643;BME280;15053;48.618;10.024;2023-08-06T11:45:24;93521.72;;;16.15;87.83
27643;BME280;15053;48.618;10.024;2023-08-06T11:47:51;93538.00;;;16.36;85.13
27643;BME280;15053;48.618;10.024;2023-08-06T11:50:26;93528.84;;;16.30;83.92
27643;BME280;15053;48.618;10.024;2023-08-06T11:52:58;93523.66;;;16.18;82.32
27643;BME280;15053;48.618;10.024;2023-08-06T11:55:26;93537.41;;;16.12;82.06
27643;BME280;15053;48.618;10.024;2023-08-06T11:57:55;93530.53;;;16.07;81.50
27643;BME280;15053;48.618;10.024;2023-08-06T12:00:23;93520.28;;;16.02;82.17
27643;BME280;15053;48.618;10.024;2023-08-06T12:02:50;93533.81;;;16.04;81.11
27643;BME280;15053;48.618;10.024;2023-08-06T12:05:20;93531.13;;;16.01;80.18
27643;BME280;15053;48.618;10.024;2023-08-06T12:07:48;93535.88;;;15.95;80.43
27643;BME280;15053;48.618;10.024;2023-08-06T12:10:16;93537.78;;;15.82;80.06
27643;BME280;15053;48.618;10.024;2023-08-06T12:12:43;93514.38;;;15.62;81.74
27643;BME280;15053;48.618;10.024;2023-08-06T12:15:10;93537.97;;;15.46;82.64
27643;BME280;15053;48.618;10.024;2023-08-06T12:17:38;93540.16;;;15.32;82.83
27643;BME280;15053;48.618;10.024;2023-08-06T12:20:05;93539.25;;;15.12;84.05
27643;BME280;15053;48.618;10.024;2023-08-06T12:22:33;93547.88;;;15.01;85.46
27643;BME280;15053;48.618;10.024;2023-08-06T12:25:08;93563.97;;;14.87;86.17
27643;BME280;15053;48.618;10.024;2023-08-06T12:27:35;93557.53;;;14.72;86.16
27643;BME280;15053;48.618;10.024;2023-08-06T12:30:02;93569.34;;;14.54;87.74
27643;BME280;15053;48.618;10.024;2023-08-06T12:32:30;93556.13;;;14.51;87.90
27643;BME280;15053;48.618;10.024;2023-08-06T12:34:56;93564.31;;;14.61;88.77
27643;BME280;15053;48.618;10.024;2023-08-06T12:37:24;93557.22;;;14.74;88.92
27643;BME280;15053;48.618;10.024;2023-08-06T12:39:51;93564.31;;;14.86;89.24
27643;BME280;15053;48.618;10.024;2023-08-06T12:42:18;93591.72;;;14.88;88.87
27643;BME280;15053;48.618;10.024;2023-08-06T12:44:44;93572.72;;;14.79;87.55
27643;BME280;15053;48.618;10.024;2023-08-06T12:47:11;93559.19;;;14.53;86.74
27643;BME280;15053;48.618;10.024;2023-08-06T12:49:37;93593.91;;;14.50;88.42
27643;BME280;15053;48.618;10.024;2023-08-06T12:52:04;93599.78;;;14.35;89.66
27643;BME280;15053;48.618;10.024;2023-08-06T12:54:32;93576.50;;;14.21;91.41
27643;BME280;15053;48.618;10.024;2023-08-06T12:57:04;93591.22;;;14.26;92.62
27643;BME280;15053;48.618;10.024;2023-08-06T12:59:31;93588.81;;;14.08;91.83
27643;BME280;15053;48.618;10.024;2023-08-06T13:02:00;93602.41;;;14.02;91.85
27643;BME280;15053;48.618;10.024;2023-08-06T13:04:26;93607.63;;;13.90;93.11
27643;BME280;15053;48.618;10.024;2023-08-06T13:06:54;93597.47;;;13.88;93.76
27643;BME280;15053;48.618;10.024;2023-08-06T13:09:20;93619.09;;;13.97;94.79
27643;BME280;15053;48.618;10.024;2023-08-06T13:11:47;93612.88;;;14.02;94.57
27643;BME280;15053;48.618;10.024;2023-08-06T13:14:16;93607.66;;;14.02;93.83
27643;BME280;15053;48.618;10.024;2023-08-06T13:16:43;93619.75;;;14.06;94.29
27643;BME280;15053;48.618;10.024;2023-08-06T13:19:11;93618.25;;;14.05;94.01
27643;BME280;15053;48.618;10.024;2023-08-06T13:24:16;93645.72;;;13.99;93.82
27643;BME280;15053;48.618;10.024;2023-08-06T13:26:43;93648.97;;;13.96;93.78
27643;BME280;15053;48.618;10.024;2023-08-06T13:29:09;93625.19;;;13.89;93.49
27643;BME280;15053;48.618;10.024;2023-08-06T13:31:37;93631.84;;;13.87;94.70
27643;BME280;15053;48.618;10.024;2023-08-06T13:34:04;93635.66;;;13.89;95.55
27643;BME280;15053;48.618;10.024;2023-08-06T13:36:31;93633.25;;;13.84;95.36
27643;BME280;15053;48.618;10.024;2023-08-06T13:38:58;93640.41;;;13.75;95.34
27643;BME280;15053;48.618;10.024;2023-08-06T13:41:24;93631.84;;;13.66;95.64
27643;BME280;15053;48.618;10.024;2023-08-06T13:43:51;93651.91;;;13.62;95.53
27643;BME280;15053;48.618;10.024;2023-08-06T13:46:18;93649.34;;;13.53;94.36
27643;BME280;15053;48.618;10.024;2023-08-06T13:48:47;93635.06;;;13.51;94.00
27643;BME280;15053;48.618;10.024;2023-08-06T13:51:17;93632.59;;;13.46;93.97
27643;BME280;15053;48.618;10.024;2023-08-06T13:53:43;93629.31;;;13.37;94.18
27643;BME280;15053;48.618;10.024;2023-08-06T13:56:10;93658.47;;;13.47;93.94
27643;BME280;15053;48.618;10.024;2023-08-06T13:58:38;93653.09;;;13.44;93.63
27643;BME280;15053;48.618;10.024;2023-08-06T14:01:05;93657.88;;;13.42;93.86
27643;BME280;15053;48.618;10.024;2023-08-06T14:03:32;93666.44;;;13.51;94.08
27643;BME280;15053;48.618;10.024;2023-08-06T14:05:59;93662.59;;;13.69;94.63